sensor_id;sensor_type;location;lat;lon;timestamp;P1;durP1;ratioP1;P2;durP2;ratioP2
44036;SDS011;62488;-37.670;-63.532;2022-11-11T18:26:26;3.88;;;3.58;;
44036;SDS011;62488;-37.670;-63.532;2022-11-11T18:28:54;7.93;;;3.93;;
44036;SDS011;62488;-37.670;-63.532;2022-11-11T18:31:20;3.85;;;3.33;;
44036;SDS011;62488;-37.670;-63.532;2022-11-11T18:33:47;5.85;;;3.60;;
44036;SDS011;62488;-37.670;-63.532;2022-11-11T18:36:16;3.92;;;3.05;;
44036;SDS011;62488;-37.670;-63.532;2022-11-11T18:38:45;3.30;;;3.03;;
44036;SDS011;62488;-37.670;-63.532;2022-11-11T18:43:41;4.03;;;2.05;;
44036;SDS011;62488;-37.670;-63.532;2022-11-11T18:46:12;2.15;;;1.90;;
44036;SDS011;62488;-37.670;-63.532;2022-11-11T18:48:39;3.10;;;1.88;;
44036;SDS011;62488;-37.670;-63.532;2022-11-11T18:51:07;3.75;;;2.00;;
44036;SDS011;62488;-37.670;-63.532;2022-11-11T18:53:36;2.47;;;1.50;;
44036;SDS011;62488;-37.670;-63.532;2022-11-11T18:56:08;2.17;;;1.73;;
44036;SDS011;62488;-37.670;-63.532;2022-11-11T18:58:37;1.63;;;1.40;;
44036;SDS011;62488;-37.670;-63.532;2022-11-11T19:01:05;2.80;;;1.70;;
44036;SDS011;62488;-37.670;-63.532;2022-11-11T19:03:34;2.30;;;1.35;;
44036;SDS011;62488;-37.670;-63.532;2022-11-11T19:06:04;7.07;;;2.28;;
44036;SDS011;62488;-37.670;-63.532;2022-11-11T19:08:33;4.75;;;1.90;;
44036;SDS011;62488;-37.670;-63.532;2022-11-11T19:11:01;1.95;;;1.85;;
44036;SDS011;62488;-37.670;-63.532;2022-11-11T19:13:29;3.42;;;1.60;;
44036;SDS011;62488;-37.670;-63.532;2022-11-11T19:16:02;3.35;;;2.28;;
44036;SDS011;62488;-37.670;-63.532;2022-11-11T19:18:34;5.22;;;1.80;;
44036;SDS011;62488;-37.670;-63.532;2022-11-11T19:21:20;2.22;;;1.60;;
44036;SDS011;62488;-37.670;-63.532;2022-11-11T19:23:49;4.30;;;1.10;;
44036;SDS011;62488;-37.670;-63.532;2022-11-11T19:26:18;1.95;;;1.60;;
44036;SDS011;62488;-37.670;-63.532;2022-11-11T19:28:46;2.67;;;1.70;;
44036;SDS011;62488;-37.670;-63.532;2022-11-11T19:31:17;5.63;;;1.50;;
44036;SDS011;62488;-37.670;-63.532;2022-11-11T19:33:46;4.07;;;1.90;;
44036;SDS011;62488;-37.670;-63.532;2022-11-11T19:36:14;3.67;;;1.70;;
44036;SDS011;62488;-37.670;-63.532;2022-11-11T19:38:43;2.45;;;1.55;;
44036;SDS011;62488;-37.670;-63.532;2022-11-11T19:41:13;3.03;;;1.50;;
44036;SDS011;62488;-37.670;-63.532;2022-11-11T19:43:41;3.17;;;1.50;;
44036;SDS011;62488;-37.670;-63.532;2022-11-11T19:46:10;2.00;;;1.63;;
44036;SDS011;62488;-37.670;-63.532;2022-11-11T19:48:41;4.30;;;1.65;;
44036;SDS011;62488;-37.670;-63.532;2022-11-11T19:51:10;3.15;;;1.60;;
44036;SDS011;62488;-37.670;-63.532;2022-11-11T19:53:41;1.38;;;1.27;;
44036;SDS011;62488;-37.670;-63.532;2022-11-11T19:56:10;2.75;;;1.33;;
44036;SDS011;62488;-37.670;-63.532;2022-11-11T19:58:39;1.83;;;1.50;;
44036;SDS011;62488;-37.670;-63.532;2022-11-11T20:01:11;1.38;;;1.23;;
44036;SDS011;62488;-37.670;-63.532;2022-11-11T20:03:40;2.45;;;1.48;;
44036;SDS011;62488;-37.670;-63.532;2022-11-11T20:09:07;1.30;;;1.20;;
44036;SDS011;62488;-37.670;-63.532;2022-11-11T20:11:38;2.30;;;1.20;;
44036;SDS011;62488;-37.670;-63.532;2022-11-11T20:14:07;2.15;;;1.17;;
44036;SDS011;62488;-37.670;-63.532;2022-11-11T20:16:34;2.13;;;1.35;;
44036;SDS011;62488;-37.670;-63.532;2022-11-11T20:19:01;2.63;;;1.55;;
44036;SDS011;62488;-37.670;-63.532;2022-11-11T20:21:28;3.22;;;1.10;;
44036;SDS011;62488;-37.670;-63.532;2022-11-11T20:23:55;1.45;;;1.00;;
44036;SDS011;62488;-37.670;-63.532;2022-11-11T20:26:23;6.72;;;2.50;;
44036;SDS011;62488;-37.670;-63.532;2022-11-11T20:28:54;1.80;;;1.30;;
44036;SDS011;62488;-37.670;-63.532;2022-11-11T20:31:22;1.88;;;1.70;;
44036;SDS011;62488;-37.670;-63.532;2022-11-11T20:33:49;4.05;;;1.77;;
44036;SDS011;62488;-37.670;-63.532;2022-11-11T20:36:17;1.67;;;1.38;;
44036;SDS011;62488;-37.670;-63.532;2022-11-11T20:38:44;5.47;;;1.67;;
44036;SDS011;62488;-37.670;-63.532;2022-11-11T20:41:13;5.53;;;1.92;;
44036;SDS011;62488;-37.670;-63.532;2022-11-11T20:46:26;1.67;;;1.40;;
44036;SDS011;62488;-37.670;-63.532;2022-11-11T20:48:53;2.42;;;1.35;;
44036;SDS011;62488;-37.670;-63.532;2022-11-11T20:51:21;1.80;;;1.30;;
44036;SDS011;62488;-37.670;-63.532;2022-11-11T20:53:52;2.20;;;1.70;;
44036;SDS011;62488;-37.670;-63.532;2022-11-11T20:56:22;3.58;;;1.35;;
44036;SDS011;62488;-37.670;-63.532;2022-11-11T20:58:51;4.20;;;1.30;;
44036;SDS011;62488;-37.670;-63.532;2022-11-11T21:01:22;1.42;;;1.10;;
44036;SDS011;62488;-37.670;-63.532;2022-11-11T21:03:54;2.10;;;1.40;;
44036;SDS011;62488;-37.670;-63.532;2022-11-11T21:06:23;2.10;;;1.87;;
44036;SDS011;62488;-37.670;-63.532;2022-11-11T21:08:51;3.20;;;1.73;;
44036;SDS011;62488;-37.670;-63.532;2022-11-11T21:11:19;3.38;;;1.88;;
44036;SDS011;62488;-37.670;-63.532;2022-11-11T21:13:50;6.00;;;1.67;;
44036;SDS011;62488;-37.670;-63.532;2022-11-11T21:16:20;1.80;;;1.40;;
44036;SDS011;62488;-37.670;-63.532;2022-11-11T21:18:49;3.10;;;1.50;;
44036;SDS011;62488;-37.670;-63.532;2022-11-11T21:21:19;1.42;;;1.20;;
44036;SDS011;62488;-37.670;-63.532;2022-11-11T21:23:47;2.67;;;1.50;;
44036;SDS011;62488;-37.670;-63.532;2022-11-11T21:26:15;1.10;;;1.05;;
44036;SDS011;62488;-37.670;-63.532;2022-11-11T21:28:44;1.33;;;1.08;;
44036;SDS011;62488;-37.670;-63.532;2022-11-11T21:31:21;1.60;;;1.50;;
44036;SDS011;62488;-37.670;-63.532;2022-11-11T21:34:07;2.40;;;1.55;;
44036;SDS011;62488;-37.670;-63.532;2022-11-11T21:36:37;1.98;;;1.50;;
44036;SDS011;62488;-37.670;-63.532;2022-11-11T21:39:05;1.92;;;1.38;;
44036;SDS011;62488;-37.670;-63.532;2022-11-11T21:41:34;3.17;;;1.40;;
44036;SDS011;62488;-37.670;-63.532;2022-11-11T21:44:03;1.73;;;1.52;;
44036;SDS011;62488;-37.670;-63.532;2022-11-11T21:46:32;4.55;;;1.52;;
44036;SDS011;62488;-37.670;-63.532;2022-11-11T21:49:00;3.13;;;1.40;;
44036;SDS011;62488;-37.670;-63.532;2022-11-11T21:51:29;1.40;;;1.20;;
44036;SDS011;62488;-37.670;-63.532;2022-11-11T21:53:59;2.33;;;1.53;;
44036;SDS011;62488;-37.670;-63.532;2022-11-11T21:56:29;3.33;;;1.65;;
44036;SDS011;62488;-37.670;-63.532;2022-11-11T21:58:59;2.72;;;1.10;;
44036;SDS011;62488;-37.670;-63.532;2022-11-11T22:01:28;1.40;;;1.30;;
44036;SDS011;62488;-37.670;-63.532;2022-11-11T22:03:58;2.25;;;1.35;;
44036;SDS011;62488;-37.670;-63.532;2022-11-11T22:06:26;2.08;;;1.45;;
44036;SDS011;62488;-37.670;-63.532;2022-11-11T22:08:55;1.50;;;1.30;;
44036;SDS011;62488;-37.670;-63.532;2022-11-11T22:11:24;5.82;;;2.08;;
44036;SDS011;62488;-37.670;-63.532;2022-11-11T22:13:55;2.13;;;1.70;;
44036;SDS011;62488;-37.670;-63.532;2022-11-11T22:16:23;1.55;;;1.45;;
44036;SDS011;62488;-37.670;-63.532;2022-11-11T22:18:53;2.00;;;1.80;;
44036;SDS011;62488;-37.670;-63.532;2022-11-11T22:21:27;1.92;;;1.65;;
44036;SDS011;62488;-37.670;-63.532;2022-11-11T22:23:58;2.30;;;1.73;;
44036;SDS011;62488;-37.670;-63.532;2022-11-11T22:26:28;3.80;;;2.25;;
44036;SDS011;62488;-37.670;-63.532;2022-11-11T22:28:59;2.65;;;2.40;;
44036;SDS011;62488;-37.670;-63.532;2022-11-11T22:31:28;2.58;;;2.30;;
44036;SDS011;62488;-37.670;-63.532;2022-11-11T22:33:59;2.42;;;2.22;;
44036;SDS011;62488;-37.670;-63.532;2022-11-11T22:36:28;3.05;;;2.53;;
44036;SDS011;62488;-37.670;-63.532;2022-11-11T22:38:57;4.28;;;2.45;;
44036;SDS011;62488;-37.670;-63.532;2022-11-11T22:41:25;4.20;;;2.72;;
44036;SDS011;62488;-37.670;-63.532;2022-11-11T22:46:21;3.63;;;2.72;;
44036;SDS011;62488;-37.670;-63.532;2022-11-11T22:51:27;3.50;;;3.17;;
44036;SDS011;62488;-37.670;-63.532;2022-11-11T22:53:56;5.95;;;3.35;;
44036;SDS011;62488;-37.670;-63.532;2022-11-11T22:56:25;3.30;;;2.80;;
44036;SDS011;62488;-37.670;-63.532;2022-11-11T22:58:53;3.33;;;3.00;;
44036;SDS011;62488;-37.670;-63.532;2022-11-11T23:01:21;5.45;;;3.13;;
44036;SDS011;62488;-37.670;-63.532;2022-11-11T23:03:51;3.55;;;2.72;;
44036;SDS011;62488;-37.670;-63.532;2022-11-11T23:06:21;3.30;;;2.95;;
44036;SDS011;62488;-37.670;-63.532;2022-11-11T23:11:18;4.75;;;3.28;;
44036;SDS011;62488;-37.670;-63.532;2022-11-11T23:13:49;6.65;;;3.78;;
44036;SDS011;62488;-37.670;-63.532;2022-11-11T23:16:18;4.32;;;3.92;;
44036;SDS011;62488;-37.670;-63.532;2022-11-11T23:18:45;4.85;;;4.25;;
44036;SDS011;62488;-37.670;-63.532;2022-11-11T23:21:20;4.50;;;4.10;;
44036;SDS011;62488;-37.670;-63.532;2022-11-11T23:23:48;5.40;;;4.90;;
44036;SDS011;62488;-37.670;-63.532;2022-11-11T23:26:18;8.68;;;5.13;;
44036;SDS011;62488;-37.670;-63.532;2022-11-11T23:28:50;6.10;;;5.68;;
44036;SDS011;62488;-37.670;-63.532;2022-11-11T23:31:18;10.25;;;7.47;;
44036;SDS011;62488;-37.670;-63.532;2022-11-11T23:33:50;13.95;;;11.88;;
44036;SDS011;62488;-37.670;-63.532;2022-11-11T23:36:20;13.82;;;12.30;;
44036;SDS011;62488;-37.670;-63.532;2022-11-11T23:41:14;11.23;;;10.15;;
44036;SDS011;62488;-37.670;-63.532;2022-11-11T23:43:42;10.07;;;9.05;;
44036;SDS011;62488;-37.670;-63.532;2022-11-11T23:46:09;11.40;;;9.57;;
44036;SDS011;62488;-37.670;-63.532;2022-11-11T23:48:36;10.05;;;9.25;;
44036;SDS011;62488;-37.670;-63.532;2022-11-11T23:51:03;12.27;;;10.95;;
44036;SDS011;62488;-37.670;-63.532;2022-11-11T23:53:31;14.90;;;11.00;;
44036;SDS011;62488;-37.670;-63.532;2022-11-11T23:55:59;13.43;;;12.15;;
44036;SDS011;62488;-37.670;-63.532;2022-11-11T23:58:27;11.10;;;10.00;;
